Columbus (CMH/KCMH)

Map

Information

Location
Columbus, OH
Local Time
01:08 / 1:08 am
GMT Time
06:08 / 6:08 am
Gates
B11
No FAA reported delays
METAR KCMH 140551Z 27020G30KT 10SM OVC017 01/M02 A2950 RMK AO2 PK WND 27034/0506 RAE00 SLP998 P0001 60003 T00111017 10033 21011 53028
TAF KCMH 140538Z 1406/1506 28018G28KT P6SM -RASN BKN015 OVC022 FM140800 30018G25KT P6SM OVC015 FM141300 32011KT P6SM BKN022 FM141900 32006KT P6SM SCT022 OVC200 FM150200 30003KT P6SM OVC150